Rechercher aéroport 
image banner adimage banner ad
image banner ad

DAUG - Ghardaia / Noumerat-Moufdi Zakaria

Situé à Ghardaia, Algeria

ICAO - DAUG, IATA - GHA

Données fournies par Airmate  

Information générale

Coordonnées: N32°22'54" E3°47'58"
Élévation : 1512 feet MSL.
 
Voir autres Aéroports à Ghardaïa Province

Données opérationnelles

Accessible au public
Heure actuelle UTC:
Heure actuelle locale:
Météo
METAR: DAUG 290100Z 02004KT 340V050 CAVOK 22/06 Q1019
TAF: TAF DAUG 282300Z 2900/2924 VRB02KT CAVOK BECMG 2906/2909 10010KT BECMG 2921/2924 VRB02KT
Voir NOTAMs / SUP AIP / TFR affectant cet aéroport [VIEW]
Fréquences de communication: [VIEW]

Pistes:

Identifiant RWYQFULongueur (ft)Largeur (ft)SurfaceLDA (ft)
18183°7874148
367874148
12122°10171197ASP
30302°10171197

Coordonnées de l'aéroport

Adresse: Ghardaia Algeria

Vue satellite de DAUG